sensor_id;sensor_type;location;lat;lon;timestamp;temperature;humidity
43520;DHT22;46848;51.980;5.918;2023-03-23T00:01:53;13.10;83.60
43520;DHT22;46848;51.980;5.918;2023-03-23T00:04:20;13.10;83.50
43520;DHT22;46848;51.980;5.918;2023-03-23T00:06:46;13.10;83.50
43520;DHT22;46848;51.980;5.918;2023-03-23T00:09:18;13.10;83.40
43520;DHT22;46848;51.980;5.918;2023-03-23T00:11:49;13.10;82.90
43520;DHT22;46848;51.980;5.918;2023-03-23T00:14:15;13.10;82.70
43520;DHT22;46848;51.980;5.918;2023-03-23T00:16:41;13.10;82.70
43520;DHT22;46848;51.980;5.918;2023-03-23T00:19:10;13.10;82.70
43520;DHT22;46848;51.980;5.918;2023-03-23T00:21:39;13.20;82.50
43520;DHT22;46848;51.980;5.918;2023-03-23T00:24:09;13.10;82.60
43520;DHT22;46848;51.980;5.918;2023-03-23T00:26:37;13.20;83.20
43520;DHT22;46848;51.980;5.918;2023-03-23T00:29:07;13.20;82.80
43520;DHT22;46848;51.980;5.918;2023-03-23T00:31:33;13.20;83.20
43520;DHT22;46848;51.980;5.918;2023-03-23T00:34:02;13.20;82.90
43520;DHT22;46848;51.980;5.918;2023-03-23T00:36:33;13.20;82.80
43520;DHT22;46848;51.980;5.918;2023-03-23T00:39:02;13.20;82.60
43520;DHT22;46848;51.980;5.918;2023-03-23T00:41:28;13.20;82.60
43520;DHT22;46848;51.980;5.918;2023-03-23T00:43:55;13.20;82.50
43520;DHT22;46848;51.980;5.918;2023-03-23T00:46:22;13.20;82.50
43520;DHT22;46848;51.980;5.918;2023-03-23T00:48:48;13.30;82.40
43520;DHT22;46848;51.980;5.918;2023-03-23T00:51:16;13.20;82.30
43520;DHT22;46848;51.980;5.918;2023-03-23T00:53:42;13.20;82.20
43520;DHT22;46848;51.980;5.918;2023-03-23T00:56:08;13.20;81.70
43520;DHT22;46848;51.980;5.918;2023-03-23T00:58:35;13.20;81.80
43520;DHT22;46848;51.980;5.918;2023-03-23T01:01:00;13.30;82.20
43520;DHT22;46848;51.980;5.918;2023-03-23T01:03:26;13.20;82.00
43520;DHT22;46848;51.980;5.918;2023-03-23T01:05:53;13.30;81.80
43520;DHT22;46848;51.980;5.918;2023-03-23T01:08:20;13.20;82.10
43520;DHT22;46848;51.980;5.918;2023-03-23T01:10:47;13.30;81.90
43520;DHT22;46848;51.980;5.918;2023-03-23T01:13:14;13.30;81.90
43520;DHT22;46848;51.980;5.918;2023-03-23T01:15:40;13.30;82.50
43520;DHT22;46848;51.980;5.918;2023-03-23T01:18:07;13.30;82.60
43520;DHT22;46848;51.980;5.918;2023-03-23T01:20:35;13.20;83.60
43520;DHT22;46848;51.980;5.918;2023-03-23T01:23:01;13.20;83.70
43520;DHT22;46848;51.980;5.918;2023-03-23T01:25:29;13.20;83.40
43520;DHT22;46848;51.980;5.918;2023-03-23T01:27:55;13.20;83.80
43520;DHT22;46848;51.980;5.918;2023-03-23T01:30:20;13.20;83.60
43520;DHT22;46848;51.980;5.918;2023-03-23T01:32:46;13.20;83.60
43520;DHT22;46848;51.980;5.918;2023-03-23T01:35:13;13.20;83.40
43520;DHT22;46848;51.980;5.918;2023-03-23T01:37:39;13.20;83.30
43520;DHT22;46848;51.980;5.918;2023-03-23T01:40:05;13.10;84.10
43520;DHT22;46848;51.980;5.918;2023-03-23T01:42:34;13.20;83.80
43520;DHT22;46848;51.980;5.918;2023-03-23T01:47:46;13.20;83.80
43520;DHT22;46848;51.980;5.918;2023-03-23T01:50:12;13.20;83.60
43520;DHT22;46848;51.980;5.918;2023-03-23T01:52:38;13.20;83.80
43520;DHT22;46848;51.980;5.918;2023-03-23T01:55:05;13.20;82.80
43520;DHT22;46848;51.980;5.918;2023-03-23T01:57:31;13.30;82.60
43520;DHT22;46848;51.980;5.918;2023-03-23T02:00:02;13.20;82.60
43520;DHT22;46848;51.980;5.918;2023-03-23T02:02:34;13.30;82.50
43520;DHT22;46848;51.980;5.918;2023-03-23T02:05:04;13.30;82.80
43520;DHT22;46848;51.980;5.918;2023-03-23T02:07:34;13.30;82.60
43520;DHT22;46848;51.980;5.918;2023-03-23T02:09:59;13.30;82.20
43520;DHT22;46848;51.980;5.918;2023-03-23T02:12:25;13.30;82.50
43520;DHT22;46848;51.980;5.918;2023-03-23T02:14:51;13.30;82.60
43520;DHT22;46848;51.980;5.918;2023-03-23T02:17:36;13.30;82.30
43520;DHT22;46848;51.980;5.918;2023-03-23T02:23:08;13.30;82.60
43520;DHT22;46848;51.980;5.918;2023-03-23T02:36:39;13.30;82.70
43520;DHT22;46848;51.980;5.918;2023-03-23T02:39:09;13.30;82.80
43520;DHT22;46848;51.980;5.918;2023-03-23T02:41:58;13.30;83.20
43520;DHT22;46848;51.980;5.918;2023-03-23T02:44:27;13.30;82.70
43520;DHT22;46848;51.980;5.918;2023-03-23T02:46:56;13.30;82.50
43520;DHT22;46848;51.980;5.918;2023-03-23T02:49:24;13.30;82.30
43520;DHT22;46848;51.980;5.918;2023-03-23T02:51:51;13.40;82.30
43520;DHT22;46848;51.980;5.918;2023-03-23T02:54:19;13.40;82.30
43520;DHT22;46848;51.980;5.918;2023-03-23T02:56:48;13.40;82.10
43520;DHT22;46848;51.980;5.918;2023-03-23T02:59:16;13.40;82.20
43520;DHT22;46848;51.980;5.918;2023-03-23T03:04:13;13.40;82.00
43520;DHT22;46848;51.980;5.918;2023-03-23T03:10:04;13.40;81.70
43520;DHT22;46848;51.980;5.918;2023-03-23T03:12:41;13.40;81.60
43520;DHT22;46848;51.980;5.918;2023-03-23T03:15:43;13.40;81.60
43520;DHT22;46848;51.980;5.918;2023-03-23T03:18:09;13.40;82.10
43520;DHT22;46848;51.980;5.918;2023-03-23T03:20:42;13.40;81.80
43520;DHT22;46848;51.980;5.918;2023-03-23T03:23:10;13.40;81.50
43520;DHT22;46848;51.980;5.918;2023-03-23T03:25:39;13.50;81.50
43520;DHT22;46848;51.980;5.918;2023-03-23T03:28:07;13.40;81.30
43520;DHT22;46848;51.980;5.918;2023-03-23T03:30:35;13.50;81.50
43520;DHT22;46848;51.980;5.918;2023-03-23T03:33:02;13.50;81.20
43520;DHT22;46848;51.980;5.918;2023-03-23T03:35:29;13.50;81.20
43520;DHT22;46848;51.980;5.918;2023-03-23T03:37:56;13.50;81.10
43520;DHT22;46848;51.980;5.918;2023-03-23T03:40:23;13.50;81.00
43520;DHT22;46848;51.980;5.918;2023-03-23T03:42:49;13.50;81.00
43520;DHT22;46848;51.980;5.918;2023-03-23T03:45:18;13.60;81.00
43520;DHT22;46848;51.980;5.918;2023-03-23T03:47:44;13.50;80.80
43520;DHT22;46848;51.980;5.918;2023-03-23T03:50:10;13.50;80.70
43520;DHT22;46848;51.980;5.918;2023-03-23T03:52:36;13.60;80.90
43520;DHT22;46848;51.980;5.918;2023-03-23T03:55:04;13.50;81.10
43520;DHT22;46848;51.980;5.918;2023-03-23T03:57:30;13.50;80.90
43520;DHT22;46848;51.980;5.918;2023-03-23T03:59:56;13.60;80.70
43520;DHT22;46848;51.980;5.918;2023-03-23T04:02:21;13.50;80.90
43520;DHT22;46848;51.980;5.918;2023-03-23T04:04:48;13.60;80.80
43520;DHT22;46848;51.980;5.918;2023-03-23T04:07:15;13.50;80.80
43520;DHT22;46848;51.980;5.918;2023-03-23T04:09:42;13.50;80.50
43520;DHT22;46848;51.980;5.918;2023-03-23T04:12:09;13.50;80.50
43520;DHT22;46848;51.980;5.918;2023-03-23T04:14:34;13.60;80.60
43520;DHT22;46848;51.980;5.918;2023-03-23T04:17:00;13.60;80.50
43520;DHT22;46848;51.980;5.918;2023-03-23T04:19:26;13.60;80.60
43520;DHT22;46848;51.980;5.918;2023-03-23T04:21:54;13.60;80.30
43520;DHT22;46848;51.980;5.918;2023-03-23T04:24:20;13.60;80.30
43520;DHT22;46848;51.980;5.918;2023-03-23T04:26:49;13.60;80.30
43520;DHT22;46848;51.980;5.918;2023-03-23T04:29:17;13.60;80.20
43520;DHT22;46848;51.980;5.918;2023-03-23T04:31:43;13.60;80.40
43520;DHT22;46848;51.980;5.918;2023-03-23T04:34:11;13.60;80.40
43520;DHT22;46848;51.980;5.918;2023-03-23T04:36:39;13.60;80.40
43520;DHT22;46848;51.980;5.918;2023-03-23T04:39:04;13.60;80.20
43520;DHT22;46848;51.980;5.918;2023-03-23T04:41:37;13.60;80.10
43520;DHT22;46848;51.980;5.918;2023-03-23T04:44:04;13.60;79.80
43520;DHT22;46848;51.980;5.918;2023-03-23T04:46:30;13.60;79.80
43520;DHT22;46848;51.980;5.918;2023-03-23T04:48:57;13.70;79.80
43520;DHT22;46848;51.980;5.918;2023-03-23T04:51:26;13.60;79.70
43520;DHT22;46848;51.980;5.918;2023-03-23T04:53:53;13.60;79.70
43520;DHT22;46848;51.980;5.918;2023-03-23T04:56:19;13.60;79.70
43520;DHT22;46848;51.980;5.918;2023-03-23T04:58:46;13.60;79.50
43520;DHT22;46848;51.980;5.918;2023-03-23T05:01:12;13.60;79.40
43520;DHT22;46848;51.980;5.918;2023-03-23T05:03:43;13.70;79.20
43520;DHT22;46848;51.980;5.918;2023-03-23T05:06:09;13.70;79.20
43520;DHT22;46848;51.980;5.918;2023-03-23T05:08:35;13.60;79.10
43520;DHT22;46848;51.980;5.918;2023-03-23T05:11:05;13.60;78.90
43520;DHT22;46848;51.980;5.918;2023-03-23T05:13:31;13.60;78.80
43520;DHT22;46848;51.980;5.918;2023-03-23T05:15:58;13.70;78.80
43520;DHT22;46848;51.980;5.918;2023-03-23T05:18:23;13.70;78.60
43520;DHT22;46848;51.980;5.918;2023-03-23T05:20:49;13.70;78.50
43520;DHT22;46848;51.980;5.918;2023-03-23T05:23:18;13.70;78.50
43520;DHT22;46848;51.980;5.918;2023-03-23T05:25:52;13.70;78.30
43520;DHT22;46848;51.980;5.918;2023-03-23T05:28:18;13.70;78.20
43520;DHT22;46848;51.980;5.918;2023-03-23T05:30:44;13.70;78.20
43520;DHT22;46848;51.980;5.918;2023-03-23T05:33:09;13.60;78.10
43520;DHT22;46848;51.980;5.918;2023-03-23T05:35:35;13.70;78.10
43520;DHT22;46848;51.980;5.918;2023-03-23T05:38:01;13.70;78.10
43520;DHT22;46848;51.980;5.918;2023-03-23T05:40:27;13.70;78.00
43520;DHT22;46848;51.980;5.918;2023-03-23T05:42:53;13.70;77.90
43520;DHT22;46848;51.980;5.918;2023-03-23T05:45:21;13.70;78.00
43520;DHT22;46848;51.980;5.918;2023-03-23T05:47:48;13.70;78.00
43520;DHT22;46848;51.980;5.918;2023-03-23T05:50:14;13.70;77.80
43520;DHT22;46848;51.980;5.918;2023-03-23T05:52:39;13.70;77.70
43520;DHT22;46848;51.980;5.918;2023-03-23T05:55:06;13.70;77.80
43520;DHT22;46848;51.980;5.918;2023-03-23T05:57:33;13.70;77.80
43520;DHT22;46848;51.980;5.918;2023-03-23T05:59:59;13.70;78.00
43520;DHT22;46848;51.980;5.918;2023-03-23T06:02:25;13.70;78.00
43520;DHT22;46848;51.980;5.918;2023-03-23T06:04:54;13.70;77.90
43520;DHT22;46848;51.980;5.918;2023-03-23T06:07:23;13.70;78.00
43520;DHT22;46848;51.980;5.918;2023-03-23T06:09:50;13.70;78.00
43520;DHT22;46848;51.980;5.918;2023-03-23T06:12:16;13.70;78.00
43520;DHT22;46848;51.980;5.918;2023-03-23T06:14:46;13.70;77.90
43520;DHT22;46848;51.980;5.918;2023-03-23T06:17:12;13.70;78.00
43520;DHT22;46848;51.980;5.918;2023-03-23T06:19:37;13.70;77.90
43520;DHT22;46848;51.980;5.918;2023-03-23T06:22:03;13.70;77.90
43520;DHT22;46848;51.980;5.918;2023-03-23T06:24:30;13.70;78.10
43520;DHT22;46848;51.980;5.918;2023-03-23T06:26:57;13.70;78.10
43520;DHT22;46848;51.980;5.918;2023-03-23T06:29:23;13.70;77.90
43520;DHT22;46848;51.980;5.918;2023-03-23T06:31:53;13.70;78.00
43520;DHT22;46848;51.980;5.918;2023-03-23T06:34:20;13.70;78.10
43520;DHT22;46848;51.980;5.918;2023-03-23T06:36:46;13.70;78.10
43520;DHT22;46848;51.980;5.918;2023-03-23T06:39:12;13.70;78.00
43520;DHT22;46848;51.980;5.918;2023-03-23T06:41:39;13.80;78.00
43520;DHT22;46848;51.980;5.918;2023-03-23T06:44:05;13.80;77.90
43520;DHT22;46848;51.980;5.918;2023-03-23T06:46:31;13.80;78.00
43520;DHT22;46848;51.980;5.918;2023-03-23T06:48:57;13.80;77.90
43520;DHT22;46848;51.980;5.918;2023-03-23T06:51:23;13.70;77.90
43520;DHT22;46848;51.980;5.918;2023-03-23T06:53:49;13.80;77.90
43520;DHT22;46848;51.980;5.918;2023-03-23T06:56:15;13.80;78.00
43520;DHT22;46848;51.980;5.918;2023-03-23T06:58:41;13.80;78.00
43520;DHT22;46848;51.980;5.918;2023-03-23T07:01:11;13.80;78.10
43520;DHT22;46848;51.980;5.918;2023-03-23T07:03:36;13.70;78.20
43520;DHT22;46848;51.980;5.918;2023-03-23T07:06:03;13.70;78.20
43520;DHT22;46848;51.980;5.918;2023-03-23T07:08:29;13.70;78.40
43520;DHT22;46848;51.980;5.918;2023-03-23T07:10:57;13.70;78.40
43520;DHT22;46848;51.980;5.918;2023-03-23T07:13:35;13.70;78.50
43520;DHT22;46848;51.980;5.918;2023-03-23T07:16:05;13.80;78.30
43520;DHT22;46848;51.980;5.918;2023-03-23T07:18:31;13.80;78.10
43520;DHT22;46848;51.980;5.918;2023-03-23T07:20:56;13.90;77.80
43520;DHT22;46848;51.980;5.918;2023-03-23T07:23:22;13.90;77.80
43520;DHT22;46848;51.980;5.918;2023-03-23T07:25:49;13.90;77.70
43520;DHT22;46848;51.980;5.918;2023-03-23T07:28:16;14.00;77.50
43520;DHT22;46848;51.980;5.918;2023-03-23T07:30:42;14.00;77.20
43520;DHT22;46848;51.980;5.918;2023-03-23T07:33:09;14.10;77.10
43520;DHT22;46848;51.980;5.918;2023-03-23T07:35:35;14.10;77.20
43520;DHT22;46848;51.980;5.918;2023-03-23T07:38:02;14.10;77.00
43520;DHT22;46848;51.980;5.918;2023-03-23T07:40:29;14.10;76.90
43520;DHT22;46848;51.980;5.918;2023-03-23T07:42:58;14.10;76.70
43520;DHT22;46848;51.980;5.918;2023-03-23T07:45:24;14.10;76.80
43520;DHT22;46848;51.980;5.918;2023-03-23T07:47:50;14.10;76.60
43520;DHT22;46848;51.980;5.918;2023-03-23T07:50:16;14.20;76.60
43520;DHT22;46848;51.980;5.918;2023-03-23T07:52:44;14.20;76.60
43520;DHT22;46848;51.980;5.918;2023-03-23T07:55:11;14.20;76.50
43520;DHT22;46848;51.980;5.918;2023-03-23T07:57:44;14.20;76.50
43520;DHT22;46848;51.980;5.918;2023-03-23T08:00:15;14.10;76.30
43520;DHT22;46848;51.980;5.918;2023-03-23T08:02:52;14.10;76.50
43520;DHT22;46848;51.980;5.918;2023-03-23T08:05:19;14.10;76.70
43520;DHT22;46848;51.980;5.918;2023-03-23T08:07:46;14.10;77.00
43520;DHT22;46848;51.980;5.918;2023-03-23T08:10:13;14.00;77.10
43520;DHT22;46848;51.980;5.918;2023-03-23T08:12:40;14.00;77.30
43520;DHT22;46848;51.980;5.918;2023-03-23T08:15:08;13.90;77.40
43520;DHT22;46848;51.980;5.918;2023-03-23T08:17:34;13.90;77.70
43520;DHT22;46848;51.980;5.918;2023-03-23T08:20:00;13.80;77.80
43520;DHT22;46848;51.980;5.918;2023-03-23T08:22:27;13.80;77.90
43520;DHT22;46848;51.980;5.918;2023-03-23T08:24:54;13.80;78.20
43520;DHT22;46848;51.980;5.918;2023-03-23T08:27:20;13.80;78.20
43520;DHT22;46848;51.980;5.918;2023-03-23T08:29:48;13.80;78.30
43520;DHT22;46848;51.980;5.918;2023-03-23T08:32:14;13.90;78.40
43520;DHT22;46848;51.980;5.918;2023-03-23T08:34:40;13.90;78.40
43520;DHT22;46848;51.980;5.918;2023-03-23T08:37:07;13.90;78.50
43520;DHT22;46848;51.980;5.918;2023-03-23T08:39:33;13.90;78.40
43520;DHT22;46848;51.980;5.918;2023-03-23T08:41:59;13.90;78.80
43520;DHT22;46848;51.980;5.918;2023-03-23T08:44:25;13.90;78.50
43520;DHT22;46848;51.980;5.918;2023-03-23T08:46:50;13.90;78.60
43520;DHT22;46848;51.980;5.918;2023-03-23T08:49:23;13.90;78.50
43520;DHT22;46848;51.980;5.918;2023-03-23T08:51:49;14.00;78.30
43520;DHT22;46848;51.980;5.918;2023-03-23T08:54:14;14.00;78.30
43520;DHT22;46848;51.980;5.918;2023-03-23T08:56:41;14.00;78.30
43520;DHT22;46848;51.980;5.918;2023-03-23T08:59:07;14.00;78.30
43520;DHT22;46848;51.980;5.918;2023-03-23T09:01:33;14.10;78.00
43520;DHT22;46848;51.980;5.918;2023-03-23T09:03:58;14.10;77.80
43520;DHT22;46848;51.980;5.918;2023-03-23T09:06:25;14.10;77.30
43520;DHT22;46848;51.980;5.918;2023-03-23T09:08:51;14.00;77.20
43520;DHT22;46848;51.980;5.918;2023-03-23T09:11:17;14.00;77.30
43520;DHT22;46848;51.980;5.918;2023-03-23T09:13:43;14.00;77.20
43520;DHT22;46848;51.980;5.918;2023-03-23T09:16:09;14.00;77.20
43520;DHT22;46848;51.980;5.918;2023-03-23T09:18:34;14.00;77.00
43520;DHT22;46848;51.980;5.918;2023-03-23T09:21:01;14.00;77.00
43520;DHT22;46848;51.980;5.918;2023-03-23T09:23:27;14.00;76.80
43520;DHT22;46848;51.980;5.918;2023-03-23T09:25:53;14.10;76.60
43520;DHT22;46848;51.980;5.918;2023-03-23T09:28:19;14.20;76.60
43520;DHT22;46848;51.980;5.918;2023-03-23T09:30:45;14.30;76.00
43520;DHT22;46848;51.980;5.918;2023-03-23T09:33:14;14.30;75.80
43520;DHT22;46848;51.980;5.918;2023-03-23T09:35:40;14.40;75.50
43520;DHT22;46848;51.980;5.918;2023-03-23T09:38:08;14.50;75.60
43520;DHT22;46848;51.980;5.918;2023-03-23T09:46:24;15.00;74.70
43520;DHT22;46848;51.980;5.918;2023-03-23T09:49:02;15.10;74.30
43520;DHT22;46848;51.980;5.918;2023-03-23T09:54:30;15.20;74.30
43520;DHT22;46848;51.980;5.918;2023-03-23T09:56:58;15.40;74.00
43520;DHT22;46848;51.980;5.918;2023-03-23T09:59:47;15.80;73.60
43520;DHT22;46848;51.980;5.918;2023-03-23T10:02:21;16.10;73.00
43520;DHT22;46848;51.980;5.918;2023-03-23T10:04:51;16.40;72.40
43520;DHT22;46848;51.980;5.918;2023-03-23T10:07:22;16.50;72.30
43520;DHT22;46848;51.980;5.918;2023-03-23T10:09:55;16.50;71.80
43520;DHT22;46848;51.980;5.918;2023-03-23T10:12:40;16.50;72.10
43520;DHT22;46848;51.980;5.918;2023-03-23T10:17:44;16.90;71.60
43520;DHT22;46848;51.980;5.918;2023-03-23T10:26:20;17.50;70.30
43520;DHT22;46848;51.980;5.918;2023-03-23T10:28:54;17.60;70.10
43520;DHT22;46848;51.980;5.918;2023-03-23T10:31:38;17.60;70.20
43520;DHT22;46848;51.980;5.918;2023-03-23T10:34:15;17.80;68.30
43520;DHT22;46848;51.980;5.918;2023-03-23T10:37:02;17.90;69.50
43520;DHT22;46848;51.980;5.918;2023-03-23T10:39:42;17.90;68.00
43520;DHT22;46848;51.980;5.918;2023-03-23T10:42:10;17.80;69.20
43520;DHT22;46848;51.980;5.918;2023-03-23T10:44:36;17.80;69.50
43520;DHT22;46848;51.980;5.918;2023-03-23T10:47:06;17.70;68.80
43520;DHT22;46848;51.980;5.918;2023-03-23T10:49:47;17.70;68.60
43520;DHT22;46848;51.980;5.918;2023-03-23T10:52:25;17.70;68.70
43520;DHT22;46848;51.980;5.918;2023-03-23T10:55:14;17.60;69.40
43520;DHT22;46848;51.980;5.918;2023-03-23T10:57:43;17.60;67.70
43520;DHT22;46848;51.980;5.918;2023-03-23T11:00:23;17.60;68.90
43520;DHT22;46848;51.980;5.918;2023-03-23T11:05:36;17.80;68.90
43520;DHT22;46848;51.980;5.918;2023-03-23T11:08:03;17.90;68.30
43520;DHT22;46848;51.980;5.918;2023-03-23T11:10:38;18.00;67.30
43520;DHT22;46848;51.980;5.918;2023-03-23T11:13:04;18.10;66.70
43520;DHT22;46848;51.980;5.918;2023-03-23T11:15:38;18.20;66.80
43520;DHT22;46848;51.980;5.918;2023-03-23T11:20:50;18.20;66.40
43520;DHT22;46848;51.980;5.918;2023-03-23T11:23:29;18.00;67.10
43520;DHT22;46848;51.980;5.918;2023-03-23T11:26:20;17.90;66.70
43520;DHT22;46848;51.980;5.918;2023-03-23T11:28:56;17.90;66.30
43520;DHT22;46848;51.980;5.918;2023-03-23T11:31:24;17.90;66.60
43520;DHT22;46848;51.980;5.918;2023-03-23T11:33:58;18.00;68.20
43520;DHT22;46848;51.980;5.918;2023-03-23T11:38:56;18.20;66.20
43520;DHT22;46848;51.980;5.918;2023-03-23T11:41:23;18.30;66.90
43520;DHT22;46848;51.980;5.918;2023-03-23T11:43:51;18.30;66.60
43520;DHT22;46848;51.980;5.918;2023-03-23T11:46:35;18.20;66.00
43520;DHT22;46848;51.980;5.918;2023-03-23T11:49:18;18.20;65.90
43520;DHT22;46848;51.980;5.918;2023-03-23T11:51:47;18.00;65.00
43520;DHT22;46848;51.980;5.918;2023-03-23T11:54:33;17.90;66.40
43520;DHT22;46848;51.980;5.918;2023-03-23T11:56:59;17.80;67.00
43520;DHT22;46848;51.980;5.918;2023-03-23T11:59:32;17.70;67.20
43520;DHT22;46848;51.980;5.918;2023-03-23T12:05:30;17.50;67.50
43520;DHT22;46848;51.980;5.918;2023-03-23T12:08:12;17.40;67.60
43520;DHT22;46848;51.980;5.918;2023-03-23T12:10:49;17.30;68.40
43520;DHT22;46848;51.980;5.918;2023-03-23T12:16:23;17.10;69.00
43520;DHT22;46848;51.980;5.918;2023-03-23T12:19:12;17.10;68.60
43520;DHT22;46848;51.980;5.918;2023-03-23T12:24:59;17.00;68.50
43520;DHT22;46848;51.980;5.918;2023-03-23T12:27:46;17.10;69.00
43520;DHT22;46848;51.980;5.918;2023-03-23T12:33:18;17.40;68.70
43520;DHT22;46848;51.980;5.918;2023-03-23T12:35:59;17.50;68.40
43520;DHT22;46848;51.980;5.918;2023-03-23T12:41:19;17.70;67.80
43520;DHT22;46848;51.980;5.918;2023-03-23T12:46:51;17.70;67.20
43520;DHT22;46848;51.980;5.918;2023-03-23T12:49:27;17.60;67.40
43520;DHT22;46848;51.980;5.918;2023-03-23T12:52:17;17.60;67.30
43520;DHT22;46848;51.980;5.918;2023-03-23T12:54:50;17.60;67.30
43520;DHT22;46848;51.980;5.918;2023-03-23T13:00:16;17.40;67.00
43520;DHT22;46848;51.980;5.918;2023-03-23T13:03:17;17.20;67.10
43520;DHT22;46848;51.980;5.918;2023-03-23T13:05:49;17.10;67.70
43520;DHT22;46848;51.980;5.918;2023-03-23T13:08:31;17.00;68.70
43520;DHT22;46848;51.980;5.918;2023-03-23T13:11:02;16.80;70.10
43520;DHT22;46848;51.980;5.918;2023-03-23T13:13:45;16.70;70.10
43520;DHT22;46848;51.980;5.918;2023-03-23T13:16:25;16.60;70.70
43520;DHT22;46848;51.980;5.918;2023-03-23T13:24:36;16.40;71.80
43520;DHT22;46848;51.980;5.918;2023-03-23T13:27:04;16.30;72.00
43520;DHT22;46848;51.980;5.918;2023-03-23T13:29:32;16.30;72.20
43520;DHT22;46848;51.980;5.918;2023-03-23T13:32:35;16.20;72.40
43520;DHT22;46848;51.980;5.918;2023-03-23T13:35:04;16.20;72.60
43520;DHT22;46848;51.980;5.918;2023-03-23T13:37:32;16.30;72.60
43520;DHT22;46848;51.980;5.918;2023-03-23T13:42:30;16.40;72.80
43520;DHT22;46848;51.980;5.918;2023-03-23T13:45:20;16.50;72.80
43520;DHT22;46848;51.980;5.918;2023-03-23T13:48:02;16.70;72.80
43520;DHT22;46848;51.980;5.918;2023-03-23T13:50:29;16.80;72.60
43520;DHT22;46848;51.980;5.918;2023-03-23T13:53:01;16.80;72.20
43520;DHT22;46848;51.980;5.918;2023-03-23T13:55:39;16.80;72.00
43520;DHT22;46848;51.980;5.918;2023-03-23T14:05:42;16.80;71.70
43520;DHT22;46848;51.980;5.918;2023-03-23T14:10:40;16.80;71.80
43520;DHT22;46848;51.980;5.918;2023-03-23T14:13:23;16.70;71.90
43520;DHT22;46848;51.980;5.918;2023-03-23T14:16:00;16.70;72.00
43520;DHT22;46848;51.980;5.918;2023-03-23T14:18:35;16.70;72.20
43520;DHT22;46848;51.980;5.918;2023-03-23T14:21:01;16.60;72.30
43520;DHT22;46848;51.980;5.918;2023-03-23T14:23:27;16.60;72.50
43520;DHT22;46848;51.980;5.918;2023-03-23T14:25:59;16.60;72.60
43520;DHT22;46848;51.980;5.918;2023-03-23T14:28:36;16.50;72.80
43520;DHT22;46848;51.980;5.918;2023-03-23T14:31:02;16.40;72.90
43520;DHT22;46848;51.980;5.918;2023-03-23T14:33:28;16.30;73.00
43520;DHT22;46848;51.980;5.918;2023-03-23T14:35:57;16.30;73.20
43520;DHT22;46848;51.980;5.918;2023-03-23T14:38:25;16.30;73.20
43520;DHT22;46848;51.980;5.918;2023-03-23T14:41:00;16.30;73.20
43520;DHT22;46848;51.980;5.918;2023-03-23T14:43:26;16.40;73.20
43520;DHT22;46848;51.980;5.918;2023-03-23T14:45:54;16.50;73.30
43520;DHT22;46848;51.980;5.918;2023-03-23T14:48:21;16.60;73.20
43520;DHT22;46848;51.980;5.918;2023-03-23T14:50:58;16.70;73.10
43520;DHT22;46848;51.980;5.918;2023-03-23T14:53:39;16.80;72.90
43520;DHT22;46848;51.980;5.918;2023-03-23T14:56:16;17.00;72.60
43520;DHT22;46848;51.980;5.918;2023-03-23T14:58:46;17.00;72.10
43520;DHT22;46848;51.980;5.918;2023-03-23T15:01:17;17.10;71.70
43520;DHT22;46848;51.980;5.918;2023-03-23T15:03:49;17.10;71.50
43520;DHT22;46848;51.980;5.918;2023-03-23T15:06:18;17.20;71.20
43520;DHT22;46848;51.980;5.918;2023-03-23T15:08:47;17.30;70.30
43520;DHT22;46848;51.980;5.918;2023-03-23T15:13:54;17.30;69.10
43520;DHT22;46848;51.980;5.918;2023-03-23T15:16:27;17.30;68.50
43520;DHT22;46848;51.980;5.918;2023-03-23T15:19:41;17.30;68.40
43520;DHT22;46848;51.980;5.918;2023-03-23T15:22:16;17.40;68.00
43520;DHT22;46848;51.980;5.918;2023-03-23T15:24:43;17.40;68.00
43520;DHT22;46848;51.980;5.918;2023-03-23T15:27:15;17.40;67.90
43520;DHT22;46848;51.980;5.918;2023-03-23T15:32:27;17.40;67.30
43520;DHT22;46848;51.980;5.918;2023-03-23T15:34:53;17.40;67.50
43520;DHT22;46848;51.980;5.918;2023-03-23T15:37:27;17.50;67.60
43520;DHT22;46848;51.980;5.918;2023-03-23T15:39:53;17.40;67.20
43520;DHT22;46848;51.980;5.918;2023-03-23T15:42:27;17.50;67.10
43520;DHT22;46848;51.980;5.918;2023-03-23T15:47:44;17.40;67.10
43520;DHT22;46848;51.980;5.918;2023-03-23T15:52:36;17.30;67.30
43520;DHT22;46848;51.980;5.918;2023-03-23T15:55:02;17.30;67.60
43520;DHT22;46848;51.980;5.918;2023-03-23T15:57:27;17.20;67.70
43520;DHT22;46848;51.980;5.918;2023-03-23T15:59:53;17.20;67.70
43520;DHT22;46848;51.980;5.918;2023-03-23T16:02:21;17.20;67.80
43520;DHT22;46848;51.980;5.918;2023-03-23T16:04:49;17.10;67.90
43520;DHT22;46848;51.980;5.918;2023-03-23T16:07:15;17.10;67.80
43520;DHT22;46848;51.980;5.918;2023-03-23T16:09:41;17.10;68.10
43520;DHT22;46848;51.980;5.918;2023-03-23T16:12:13;17.00;68.00
43520;DHT22;46848;51.980;5.918;2023-03-23T16:14:39;17.10;68.00
43520;DHT22;46848;51.980;5.918;2023-03-23T16:17:07;17.10;68.20
43520;DHT22;46848;51.980;5.918;2023-03-23T16:19:34;17.00;68.20
43520;DHT22;46848;51.980;5.918;2023-03-23T16:22:00;17.00;68.20
43520;DHT22;46848;51.980;5.918;2023-03-23T16:24:26;17.00;67.80
43520;DHT22;46848;51.980;5.918;2023-03-23T16:26:51;17.00;68.20
43520;DHT22;46848;51.980;5.918;2023-03-23T16:29:17;17.00;68.20
43520;DHT22;46848;51.980;5.918;2023-03-23T16:31:42;17.00;68.30
43520;DHT22;46848;51.980;5.918;2023-03-23T16:34:08;17.00;68.30
43520;DHT22;46848;51.980;5.918;2023-03-23T16:36:34;17.00;68.30
43520;DHT22;46848;51.980;5.918;2023-03-23T16:39:00;16.90;68.20
43520;DHT22;46848;51.980;5.918;2023-03-23T16:41:26;16.90;68.80
43520;DHT22;46848;51.980;5.918;2023-03-23T16:43:51;16.90;68.20
43520;DHT22;46848;51.980;5.918;2023-03-23T16:46:17;16.90;68.20
43520;DHT22;46848;51.980;5.918;2023-03-23T16:48:42;16.80;68.20
43520;DHT22;46848;51.980;5.918;2023-03-23T16:51:08;16.80;68.30
43520;DHT22;46848;51.980;5.918;2023-03-23T16:53:34;16.70;68.30
43520;DHT22;46848;51.980;5.918;2023-03-23T16:56:00;16.70;68.60
43520;DHT22;46848;51.980;5.918;2023-03-23T16:58:26;16.60;68.50
43520;DHT22;46848;51.980;5.918;2023-03-23T17:00:52;16.60;68.80
43520;DHT22;46848;51.980;5.918;2023-03-23T17:03:19;16.50;68.60
43520;DHT22;46848;51.980;5.918;2023-03-23T17:05:47;16.50;68.90
43520;DHT22;46848;51.980;5.918;2023-03-23T17:08:13;16.40;68.90
43520;DHT22;46848;51.980;5.918;2023-03-23T17:10:39;16.40;68.90
43520;DHT22;46848;51.980;5.918;2023-03-23T17:13:06;16.40;68.90
43520;DHT22;46848;51.980;5.918;2023-03-23T17:15:31;16.40;68.80
43520;DHT22;46848;51.980;5.918;2023-03-23T17:17:57;16.40;68.90
43520;DHT22;46848;51.980;5.918;2023-03-23T17:20:22;16.30;69.00
43520;DHT22;46848;51.980;5.918;2023-03-23T17:22:49;16.30;69.10